Time;durP1;ratioP1;P1;durP2;ratioP2;P2;SDS_P1;SDS_P2;PMS_P1;PMS_P2;Temp;Humidity;BMP_temperature;BMP_pressure;BME280_temperature;BME280_humidity;BME280_pressure;Samples;Min_cycle;Max_cycle;Signal;HPM_P1;HPM_P2
2021/09/25 00:02:15;;;;;;;9.57;7.63;;;;;;;;;;5121038;28;20209;-65
2021/09/25 00:04:44;;;;;;;9.77;7.43;;;;;;;;;;5121056;28;20224;-65
2021/09/25 00:07:13;;;;;;;9.60;7.07;;;;;;;;;;5120925;28;20260;-65
2021/09/25 00:09:42;;;;;;;9.40;7.77;;;;;;;;;;5120594;28;20771;-64
2021/09/25 00:12:11;;;;;;;9.27;7.40;;;;;;;;;;5120717;28;20201;-65
2021/09/25 00:14:39;;;;;;;9.53;7.20;;;;;;;;;;5120582;28;20311;-65
2021/09/25 00:17:07;;;;;;;7.93;7.10;;;;;;;;;;5120544;27;20211;-64
2021/09/25 00:19:36;;;;;;;9.63;7.43;;;;;;;;;;5120496;28;20213;-65
2021/09/25 00:22:04;;;;;;;7.93;6.70;;;;;;;;;;5120855;28;20288;-65
2021/09/25 00:24:34;;;;;;;13.03;7.43;;;;;;;;;;5120417;28;20653;-65
2021/09/25 00:27:02;;;;;;;8.40;6.67;;;;;;;;;;5120218;28;20207;-64
2021/09/25 00:29:30;;;;;;;10.47;7.67;;;;;;;;;;5120492;28;20209;-65
2021/09/25 00:31:58;;;;;;;9.37;6.50;;;;;;;;;;5120562;28;20211;-65
2021/09/25 00:34:27;;;;;;;11.07;7.13;;;;;;;;;;5119359;28;20227;-65
2021/09/25 00:36:54;;;;;;;8.90;6.97;;;;;;;;;;5120430;28;20212;-64
2021/09/25 00:39:22;;;;;;;9.03;7.37;;;;;;;;;;5120486;28;20228;-64
2021/09/25 00:41:52;;;;;;;8.67;7.23;;;;;;;;;;5119898;28;20572;-65
2021/09/25 00:44:21;;;;;;;10.30;7.10;;;;;;;;;;5120081;28;20252;-65
2021/09/25 00:46:49;;;;;;;12.37;7.80;;;;;;;;;;5120062;28;20811;-64
2021/09/25 00:49:18;;;;;;;9.23;7.77;;;;;;;;;;5120198;28;20214;-65
2021/09/25 00:51:46;;;;;;;9.83;7.83;;;;;;;;;;5119864;28;20221;-65
2021/09/25 00:54:14;;;;;;;9.57;7.57;;;;;;;;;;5119508;28;20235;-65
2021/09/25 00:56:43;;;;;;;9.17;7.63;;;;;;;;;;5119567;28;20243;-65
2021/09/25 00:59:13;;;;;;;7.87;7.07;;;;;;;;;;5115258;28;20205;-64
2021/09/25 01:01:43;;;;;;;9.90;7.50;;;;;;;;;;5119642;28;20204;-65
2021/09/25 01:04:11;;;;;;;8.50;7.30;;;;;;;;;;5119646;28;20230;-65
2021/09/25 01:06:39;;;;;;;12.17;7.13;;;;;;;;;;5119437;28;20236;-65
2021/09/25 01:09:08;;;;;;;10.23;7.73;;;;;;;;;;5120100;28;20215;-65
2021/09/25 01:11:36;;;;;;;10.13;8.17;;;;;;;;;;5119544;28;20224;-65
2021/09/25 01:14:04;;;;;;;11.80;7.80;;;;;;;;;;5119575;28;20311;-65
2021/09/25 01:16:34;;;;;;;10.37;7.53;;;;;;;;;;5119643;28;20209;-65
2021/09/25 01:19:02;;;;;;;11.40;8.03;;;;;;;;;;5119325;28;20208;-65
2021/09/25 01:21:31;;;;;;;11.80;8.73;;;;;;;;;;5119796;28;20228;-65
2021/09/25 01:23:59;;;;;;;12.80;7.90;;;;;;;;;;5119503;28;20311;-65
2021/09/25 01:26:27;;;;;;;10.60;8.10;;;;;;;;;;5119305;28;20205;-65
2021/09/25 01:28:55;;;;;;;14.10;8.50;;;;;;;;;;5119443;28;20223;-65
2021/09/25 01:31:23;;;;;;;13.90;8.53;;;;;;;;;;5118872;28;20239;-65
2021/09/25 01:33:52;;;;;;;11.73;8.20;;;;;;;;;;5119044;28;20229;-65
2021/09/25 01:36:20;;;;;;;14.57;9.07;;;;;;;;;;5119437;28;20291;-65
2021/09/25 01:38:49;;;;;;;14.17;8.60;;;;;;;;;;5119547;28;20204;-65
2021/09/25 01:41:17;;;;;;;11.77;7.60;;;;;;;;;;5118855;28;20207;-65
2021/09/25 01:43:45;;;;;;;14.03;8.50;;;;;;;;;;5118963;28;20235;-63
2021/09/25 01:46:16;;;;;;;14.10;8.40;;;;;;;;;;5118946;28;20296;-63
2021/09/25 01:48:45;;;;;;;11.93;7.83;;;;;;;;;;5118944;28;20684;-63
2021/09/25 01:51:13;;;;;;;11.27;7.57;;;;;;;;;;5118704;28;20235;-63
2021/09/25 01:53:41;;;;;;;10.97;7.53;;;;;;;;;;5118666;28;20292;-63
2021/09/25 01:56:12;;;;;;;13.00;8.40;;;;;;;;;;5118734;28;20211;-63
2021/09/25 01:58:40;;;;;;;11.80;7.60;;;;;;;;;;5114212;28;20291;-63
2021/09/25 02:01:09;;;;;;;10.47;6.90;;;;;;;;;;5118931;28;20196;-63
2021/09/25 02:03:37;;;;;;;11.27;7.87;;;;;;;;;;5118605;28;20207;-63
2021/09/25 02:06:06;;;;;;;12.77;7.47;;;;;;;;;;5118355;28;20253;-63
2021/09/25 02:08:35;;;;;;;9.17;6.93;;;;;;;;;;5118708;28;20288;-63
2021/09/25 02:11:03;;;;;;;11.50;7.60;;;;;;;;;;5117990;27;20229;-63
2021/09/25 02:13:33;;;;;;;10.17;8.33;;;;;;;;;;5118712;28;20215;-64
2021/09/25 02:16:01;;;;;;;13.70;7.83;;;;;;;;;;5118421;28;20587;-62
2021/09/25 02:18:29;;;;;;;9.30;8.23;;;;;;;;;;5118660;28;20285;-62
2021/09/25 02:20:57;;;;;;;12.37;7.60;;;;;;;;;;5118655;28;20268;-62
2021/09/25 02:23:25;;;;;;;12.53;8.13;;;;;;;;;;5118518;28;20213;-62
2021/09/25 02:25:54;;;;;;;10.63;8.17;;;;;;;;;;5117848;28;20246;-62
2021/09/25 02:28:21;;;;;;;11.13;8.13;;;;;;;;;;5118322;28;20204;-63
2021/09/25 02:30:51;;;;;;;11.90;8.90;;;;;;;;;;5117952;28;20268;-62
2021/09/25 02:33:19;;;;;;;11.30;7.87;;;;;;;;;;5118420;28;20209;-65
2021/09/25 02:35:47;;;;;;;12.13;7.70;;;;;;;;;;5118168;28;20235;-65
2021/09/25 02:38:15;;;;;;;10.97;8.17;;;;;;;;;;5118052;28;20219;-63
2021/09/25 02:40:43;;;;;;;12.93;8.67;;;;;;;;;;5117822;28;20668;-64
2021/09/25 02:43:12;;;;;;;11.97;8.40;;;;;;;;;;5118423;28;20292;-63
2021/09/25 02:45:39;;;;;;;9.73;7.67;;;;;;;;;;5118208;28;20231;-63
2021/09/25 02:48:09;;;;;;;10.73;7.83;;;;;;;;;;5118279;27;20207;-63
2021/09/25 02:50:37;;;;;;;10.77;7.60;;;;;;;;;;5118026;28;20644;-62
2021/09/25 02:53:05;;;;;;;12.47;8.50;;;;;;;;;;5117835;28;20673;-63
2021/09/25 02:55:33;;;;;;;13.20;7.93;;;;;;;;;;5115324;28;20304;-63
2021/09/25 02:58:01;;;;;;;10.90;7.70;;;;;;;;;;5116932;28;20201;-62
2021/09/25 03:00:29;;;;;;;12.20;8.63;;;;;;;;;;5118855;28;20264;-62
2021/09/25 03:02:57;;;;;;;11.73;7.80;;;;;;;;;;5122100;28;20203;-64
2021/09/25 03:05:27;;;;;;;9.20;7.53;;;;;;;;;;5122018;28;20231;-65
2021/09/25 03:07:55;;;;;;;9.57;7.60;;;;;;;;;;5121869;28;20233;-65
2021/09/25 03:10:23;;;;;;;11.67;8.67;;;;;;;;;;5121697;28;20203;-65
2021/09/25 03:12:51;;;;;;;10.17;7.90;;;;;;;;;;5121770;28;20221;-64
2021/09/25 03:15:20;;;;;;;12.17;8.03;;;;;;;;;;5121902;28;20220;-64
2021/09/25 03:17:48;;;;;;;14.17;7.33;;;;;;;;;;5121451;28;20638;-64
2021/09/25 03:20:17;;;;;;;10.13;7.80;;;;;;;;;;5121848;28;20215;-64
2021/09/25 03:22:46;;;;;;;9.97;7.57;;;;;;;;;;5121863;28;20260;-64
2021/09/25 03:25:15;;;;;;;14.00;8.30;;;;;;;;;;5121496;28;20235;-64
2021/09/25 03:27:43;;;;;;;10.13;7.47;;;;;;;;;;5121765;28;20688;-64
2021/09/25 03:30:12;;;;;;;10.23;7.23;;;;;;;;;;5121912;28;20205;-64
2021/09/25 03:32:40;;;;;;;13.77;8.13;;;;;;;;;;5121680;27;20235;-64
2021/09/25 03:35:09;;;;;;;8.60;7.43;;;;;;;;;;5121783;27;20230;-64
2021/09/25 03:37:37;;;;;;;9.17;7.13;;;;;;;;;;5121506;28;20205;-65
2021/09/25 03:40:07;;;;;;;11.57;7.70;;;;;;;;;;5121111;28;20235;-64
2021/09/25 03:42:35;;;;;;;11.27;7.57;;;;;;;;;;5121477;28;20660;-64
2021/09/25 03:45:04;;;;;;;12.73;7.80;;;;;;;;;;5118162;28;20217;-64
2021/09/25 03:47:32;;;;;;;11.43;7.90;;;;;;;;;;5107834;28;20299;-64
2021/09/25 03:50:00;;;;;;;12.40;8.50;;;;;;;;;;5110295;28;20232;-64
2021/09/25 03:52:28;;;;;;;10.80;8.17;;;;;;;;;;5106476;28;20718;-64
2021/09/25 03:54:56;;;;;;;9.10;8.03;;;;;;;;;;5106391;28;20221;-64
2021/09/25 03:57:26;;;;;;;12.90;9.23;;;;;;;;;;5102658;28;20233;-64
2021/09/25 03:59:54;;;;;;;8.50;7.60;;;;;;;;;;5108024;28;20215;-64
2021/09/25 04:02:22;;;;;;;11.07;8.27;;;;;;;;;;5107524;28;20190;-64
2021/09/25 04:04:50;;;;;;;9.20;8.20;;;;;;;;;;5107876;28;20243;-64
2021/09/25 04:07:18;;;;;;;9.60;8.43;;;;;;;;;;5107271;28;20232;-64
2021/09/25 04:09:46;;;;;;;11.00;8.40;;;;;;;;;;5104941;28;20665;-64
2021/09/25 04:12:14;;;;;;;9.80;8.33;;;;;;;;;;5107602;28;20223;-64
2021/09/25 04:14:44;;;;;;;12.67;8.53;;;;;;;;;;5106330;28;20230;-65
2021/09/25 04:17:12;;;;;;;12.77;8.83;;;;;;;;;;5107557;28;20649;-64
2021/09/25 04:19:40;;;;;;;13.23;8.87;;;;;;;;;;5108218;28;20201;-64
2021/09/25 04:22:08;;;;;;;11.70;7.60;;;;;;;;;;5107865;28;20677;-64
2021/09/25 04:24:36;;;;;;;11.70;8.87;;;;;;;;;;5110991;28;20308;-64
2021/09/25 04:27:04;;;;;;;11.13;8.23;;;;;;;;;;5108758;28;20202;-64
2021/09/25 04:29:32;;;;;;;10.47;9.37;;;;;;;;;;5106721;28;20201;-64
2021/09/25 04:32:01;;;;;;;11.60;8.57;;;;;;;;;;5108869;28;20213;-63
2021/09/25 04:34:31;;;;;;;9.87;7.70;;;;;;;;;;5119560;28;20247;-63
2021/09/25 04:36:59;;;;;;;12.37;8.73;;;;;;;;;;5120075;28;20542;-63
2021/09/25 04:39:27;;;;;;;12.17;8.47;;;;;;;;;;5119905;28;20574;-63
2021/09/25 04:41:55;;;;;;;12.73;8.23;;;;;;;;;;5120105;28;20204;-63
2021/09/25 04:44:23;;;;;;;10.10;9.00;;;;;;;;;;5120147;28;20225;-63
2021/09/25 04:46:51;;;;;;;11.17;8.43;;;;;;;;;;5120212;28;20206;-63
2021/09/25 04:49:22;;;;;;;9.80;8.40;;;;;;;;;;5120419;27;20204;-63
2021/09/25 04:51:50;;;;;;;14.90;8.23;;;;;;;;;;5120102;28;20213;-64
2021/09/25 04:54:18;;;;;;;12.53;8.77;;;;;;;;;;5119673;28;20587;-63
2021/09/25 04:56:46;;;;;;;12.00;8.63;;;;;;;;;;5119903;28;20209;-63
2021/09/25 04:59:14;;;;;;;9.93;8.07;;;;;;;;;;5115476;28;20215;-64
2021/09/25 05:01:42;;;;;;;10.47;7.73;;;;;;;;;;5119945;28;20209;-64
2021/09/25 05:04:10;;;;;;;15.87;7.90;;;;;;;;;;5120027;28;20225;-63
2021/09/25 05:06:40;;;;;;;10.90;7.93;;;;;;;;;;5119720;28;20244;-63
2021/09/25 05:09:08;;;;;;;10.30;7.60;;;;;;;;;;5119612;28;20581;-64
2021/09/25 05:11:35;;;;;;;12.20;7.77;;;;;;;;;;5119486;28;20599;-63
2021/09/25 05:14:03;;;;;;;13.17;8.27;;;;;;;;;;5119453;28;20728;-63
2021/09/25 05:16:32;;;;;;;11.47;7.57;;;;;;;;;;5119892;28;20209;-63
2021/09/25 05:19:00;;;;;;;14.73;9.33;;;;;;;;;;5118816;28;20205;-63
2021/09/25 05:21:28;;;;;;;12.33;7.83;;;;;;;;;;5119687;28;20205;-63
2021/09/25 05:23:57;;;;;;;11.27;7.17;;;;;;;;;;5119550;28;20231;-63
2021/09/25 05:26:25;;;;;;;9.40;7.53;;;;;;;;;;5119164;28;20252;-63
2021/09/25 05:28:53;;;;;;;11.53;7.70;;;;;;;;;;5119381;28;20209;-63
2021/09/25 05:31:21;;;;;;;10.10;7.40;;;;;;;;;;5119577;28;20291;-63
2021/09/25 05:33:49;;;;;;;8.67;7.67;;;;;;;;;;5119280;28;21720;-63
2021/09/25 05:36:17;;;;;;;11.60;7.77;;;;;;;;;;5119169;28;20668;-63
2021/09/25 05:38:45;;;;;;;10.00;7.30;;;;;;;;;;5119175;28;20204;-63
2021/09/25 05:41:14;;;;;;;13.47;7.80;;;;;;;;;;5117532;27;20193;-64
2021/09/25 05:43:43;;;;;;;9.17;7.50;;;;;;;;;;5119544;27;20279;-65
2021/09/25 05:46:11;;;;;;;9.93;8.00;;;;;;;;;;5121772;27;20225;-65
2021/09/25 05:48:39;;;;;;;16.73;8.07;;;;;;;;;;5118878;28;20197;-65
2021/09/25 05:51:10;;;;;;;11.77;8.23;;;;;;;;;;5118497;27;20699;-66
2021/09/25 05:53:38;;;;;;;11.90;8.03;;;;;;;;;;5118920;27;20216;-65
2021/09/25 05:56:06;;;;;;;11.50;8.07;;;;;;;;;;5118447;28;20203;-64
2021/09/25 05:58:36;;;;;;;12.70;8.03;;;;;;;;;;5121301;27;20219;-64
2021/09/25 06:01:04;;;;;;;14.33;8.37;;;;;;;;;;5118444;28;20211;-64
2021/09/25 06:03:32;;;;;;;10.63;8.17;;;;;;;;;;5124603;27;20192;-64
2021/09/25 06:06:00;;;;;;;13.30;8.53;;;;;;;;;;5138972;27;20207;-64
2021/09/25 06:08:28;;;;;;;12.50;8.60;;;;;;;;;;5139121;27;20212;-62
2021/09/25 06:10:56;;;;;;;13.67;8.23;;;;;;;;;;5138979;27;20263;-63
2021/09/25 06:13:25;;;;;;;12.33;7.73;;;;;;;;;;5139304;27;20224;-63
2021/09/25 06:15:54;;;;;;;15.30;8.47;;;;;;;;;;5138662;27;20212;-62
2021/09/25 06:18:22;;;;;;;9.00;8.07;;;;;;;;;;5139284;27;20204;-64
2021/09/25 06:20:50;;;;;;;9.27;8.20;;;;;;;;;;5125455;27;20217;-66
2021/09/25 06:23:18;;;;;;;12.77;8.17;;;;;;;;;;5110111;28;20199;-68
2021/09/25 06:25:46;;;;;;;12.93;8.37;;;;;;;;;;5106917;28;20217;-64
2021/09/25 06:28:17;;;;;;;9.97;7.47;;;;;;;;;;5106123;28;20270;-65
2021/09/25 06:30:45;;;;;;;10.97;7.40;;;;;;;;;;5115233;28;20197;-65
2021/09/25 06:33:14;;;;;;;11.70;8.43;;;;;;;;;;5118345;28;20696;-65
2021/09/25 06:35:43;;;;;;;9.67;7.93;;;;;;;;;;5118307;28;20236;-63
2021/09/25 06:38:10;;;;;;;10.57;8.57;;;;;;;;;;5118288;28;20215;-63
2021/09/25 06:40:38;;;;;;;9.47;8.33;;;;;;;;;;5117835;28;20265;-62
2021/09/25 06:43:07;;;;;;;9.90;8.40;;;;;;;;;;5113039;28;20276;-62
2021/09/25 06:45:35;;;;;;;13.47;9.00;;;;;;;;;;5115830;28;20259;-62
2021/09/25 06:48:04;;;;;;;13.17;8.93;;;;;;;;;;5110199;28;20197;-62
2021/09/25 06:50:33;;;;;;;9.77;8.37;;;;;;;;;;5108715;28;20193;-62
2021/09/25 06:53:01;;;;;;;11.07;8.40;;;;;;;;;;5105020;28;20194;-63
2021/09/25 06:55:29;;;;;;;11.13;8.37;;;;;;;;;;5104366;28;20277;-63
2021/09/25 06:57:57;;;;;;;11.13;8.70;;;;;;;;;;5103636;28;20208;-64
2021/09/25 07:00:26;;;;;;;11.40;8.47;;;;;;;;;;5113962;28;20565;-64
2021/09/25 07:02:54;;;;;;;12.53;9.03;;;;;;;;;;5127422;28;20208;-64
2021/09/25 07:05:22;;;;;;;10.83;8.23;;;;;;;;;;5112313;27;20247;-64
2021/09/25 07:07:53;;;;;;;13.13;8.80;;;;;;;;;;5105063;28;20716;-63
2021/09/25 07:10:21;;;;;;;12.63;8.70;;;;;;;;;;5104277;28;20288;-63
2021/09/25 07:12:49;;;;;;;12.53;9.20;;;;;;;;;;5105820;28;20201;-64
2021/09/25 07:15:17;;;;;;;14.83;8.87;;;;;;;;;;5103850;28;20302;-64
2021/09/25 07:17:45;;;;;;;15.10;9.23;;;;;;;;;;5103509;28;20197;-64
2021/09/25 07:20:15;;;;;;;14.13;8.63;;;;;;;;;;5105199;28;20279;-64
2021/09/25 07:22:45;;;;;;;10.70;8.77;;;;;;;;;;5104796;28;20224;-64
2021/09/25 07:25:15;;;;;;;11.20;8.67;;;;;;;;;;5107551;28;20256;-63
2021/09/25 07:27:43;;;;;;;10.50;8.40;;;;;;;;;;5105188;28;20200;-64
2021/09/25 07:30:12;;;;;;;11.63;8.30;;;;;;;;;;5102796;28;20202;-64
2021/09/25 07:32:40;;;;;;;10.53;7.77;;;;;;;;;;5104938;28;20228;-64
2021/09/25 07:35:09;;;;;;;11.10;8.40;;;;;;;;;;5103043;28;20222;-62
2021/09/25 07:37:37;;;;;;;12.30;8.43;;;;;;;;;;5103460;28;20250;-62
2021/09/25 07:40:06;;;;;;;8.77;7.90;;;;;;;;;;5105001;28;20250;-61
2021/09/25 07:42:35;;;;;;;12.77;8.20;;;;;;;;;;5105204;28;20281;-63
2021/09/25 07:45:04;;;;;;;8.33;7.27;;;;;;;;;;5108829;28;20296;-62
2021/09/25 07:47:32;;;;;;;10.77;7.70;;;;;;;;;;5108832;28;20205;-62
2021/09/25 07:50:00;;;;;;;10.43;6.67;;;;;;;;;;5120949;28;20735;-61
2021/09/25 07:52:28;;;;;;;7.70;6.83;;;;;;;;;;5120874;28;20746;-61
2021/09/25 07:54:56;;;;;;;9.37;6.70;;;;;;;;;;5120513;27;20252;-60
2021/09/25 07:57:24;;;;;;;7.23;6.33;;;;;;;;;;5120230;28;20280;-62
2021/09/25 07:59:54;;;;;;;8.13;6.33;;;;;;;;;;5115755;28;20292;-60
2021/09/25 08:02:22;;;;;;;8.37;5.93;;;;;;;;;;5120596;28;20619;-61
2021/09/25 08:04:50;;;;;;;7.63;6.13;;;;;;;;;;5120406;28;20260;-62
2021/09/25 08:07:18;;;;;;;10.73;5.93;;;;;;;;;;5120550;27;20350;-62
2021/09/25 08:09:46;;;;;;;6.87;5.30;;;;;;;;;;5120726;28;20244;-62
2021/09/25 08:12:14;;;;;;;7.47;5.33;;;;;;;;;;5120752;28;20289;-62
2021/09/25 08:14:42;;;;;;;5.87;5.33;;;;;;;;;;5120529;28;20297;-62
2021/09/25 08:17:12;;;;;;;8.80;5.00;;;;;;;;;;5120449;28;20205;-61
2021/09/25 08:19:40;;;;;;;7.13;5.50;;;;;;;;;;5111791;28;20598;-63
2021/09/25 08:22:08;;;;;;;6.30;5.67;;;;;;;;;;5110658;28;20285;-63
2021/09/25 08:24:36;;;;;;;7.10;5.53;;;;;;;;;;5119887;28;20271;-63
2021/09/25 08:27:04;;;;;;;7.27;5.17;;;;;;;;;;5119906;28;20694;-63
2021/09/25 08:29:32;;;;;;;5.63;5.10;;;;;;;;;;5120451;28;20240;-63
2021/09/25 08:32:00;;;;;;;7.47;5.60;;;;;;;;;;5120114;28;20338;-63
2021/09/25 08:34:30;;;;;;;7.40;5.93;;;;;;;;;;5119923;28;20669;-61
2021/09/25 08:36:58;;;;;;;7.43;5.30;;;;;;;;;;5116476;28;20225;-62
2021/09/25 08:39:26;;;;;;;10.27;6.00;;;;;;;;;;5116513;28;20241;-61
2021/09/25 08:41:54;;;;;;;8.27;5.97;;;;;;;;;;5129836;27;20236;-61
2021/09/25 08:44:23;;;;;;;5.63;4.83;;;;;;;;;;5140745;27;20279;-61
2021/09/25 08:46:51;;;;;;;8.50;5.50;;;;;;;;;;5140361;27;20676;-62
2021/09/25 08:49:19;;;;;;;12.20;5.40;;;;;;;;;;5136779;27;20774;-61
2021/09/25 08:51:48;;;;;;;9.23;5.40;;;;;;;;;;5120094;28;20236;-61
2021/09/25 08:54:16;;;;;;;7.07;5.70;;;;;;;;;;5118610;28;20315;-61
2021/09/25 08:56:45;;;;;;;5.47;4.97;;;;;;;;;;5119579;28;20236;-62
2021/09/25 08:59:13;;;;;;;9.40;5.27;;;;;;;;;;5109456;27;20232;-61
2021/09/25 09:01:42;;;;;;;8.97;5.27;;;;;;;;;;5119774;28;20234;-61
2021/09/25 09:04:12;;;;;;;5.80;5.00;;;;;;;;;;5119418;28;20269;-60
2021/09/25 09:06:40;;;;;;;5.90;4.97;;;;;;;;;;5119352;28;20246;-61
2021/09/25 09:09:11;;;;;;;6.80;4.93;;;;;;;;;;5119864;28;20218;-61
2021/09/25 09:11:42;;;;;;;8.60;4.80;;;;;;;;;;5119313;28;20659;-62
2021/09/25 09:14:13;;;;;;;5.40;4.90;;;;;;;;;;5119533;28;20259;-63
2021/09/25 09:16:41;;;;;;;7.07;5.80;;;;;;;;;;5119582;28;20298;-63
2021/09/25 09:19:19;;;;;;;5.23;4.47;;;;;;;;;;5119570;28;20215;-63
2021/09/25 09:21:50;;;;;;;6.83;4.90;;;;;;;;;;5119475;28;20231;-63
2021/09/25 09:24:20;;;;;;;7.87;5.20;;;;;;;;;;5119172;28;20734;-63
2021/09/25 09:26:48;;;;;;;5.67;5.03;;;;;;;;;;5119026;28;20259;-64
2021/09/25 09:29:19;;;;;;;8.47;5.27;;;;;;;;;;5119501;28;20256;-63
2021/09/25 09:31:54;;;;;;;8.17;5.47;;;;;;;;;;5119100;28;20209;-61
2021/09/25 09:34:23;;;;;;;5.83;5.20;;;;;;;;;;5118245;27;20224;-62
2021/09/25 09:36:51;;;;;;;4.80;4.30;;;;;;;;;;5117926;28;20208;-63
2021/09/25 09:39:21;;;;;;;4.93;4.53;;;;;;;;;;5119656;27;20201;-63
2021/09/25 09:41:50;;;;;;;6.67;4.67;;;;;;;;;;5119448;27;20257;-63
2021/09/25 09:44:19;;;;;;;5.93;4.77;;;;;;;;;;5118035;28;20783;-62
2021/09/25 09:46:48;;;;;;;4.73;4.33;;;;;;;;;;5120316;27;20723;-62
2021/09/25 09:49:18;;;;;;;5.37;4.87;;;;;;;;;;5118960;27;20201;-62
2021/09/25 09:51:47;;;;;;;8.47;4.30;;;;;;;;;;5118532;27;20288;-61
2021/09/25 09:54:19;;;;;;;4.33;3.73;;;;;;;;;;5115611;28;20687;-64
2021/09/25 09:56:49;;;;;;;5.87;4.40;;;;;;;;;;5119393;27;20263;-64
2021/09/25 09:59:17;;;;;;;4.60;4.20;;;;;;;;;;5117084;27;20208;-64
2021/09/25 10:01:45;;;;;;;6.17;3.80;;;;;;;;;;5117856;28;20624;-64
2021/09/25 10:04:14;;;;;;;5.97;4.00;;;;;;;;;;5115985;27;20221;-64
2021/09/25 10:06:44;;;;;;;5.50;3.80;;;;;;;;;;5118866;27;20635;-64
2021/09/25 10:09:12;;;;;;;4.00;3.50;;;;;;;;;;5118771;27;20201;-64
2021/09/25 10:11:41;;;;;;;4.73;3.40;;;;;;;;;;5117935;28;20281;-64
2021/09/25 10:14:15;;;;;;;3.50;3.20;;;;;;;;;;5119477;27;20229;-64
2021/09/25 10:16:43;;;;;;;4.83;3.23;;;;;;;;;;5120385;27;20308;-64
2021/09/25 10:19:11;;;;;;;5.23;2.87;;;;;;;;;;5117638;28;20209;-64
2021/09/25 10:21:40;;;;;;;3.40;2.50;;;;;;;;;;5118389;27;20281;-63
2021/09/25 10:24:09;;;;;;;4.33;2.90;;;;;;;;;;5119592;28;20651;-61
2021/09/25 10:26:44;;;;;;;5.03;3.20;;;;;;;;;;5116725;28;20289;-61
2021/09/25 10:29:18;;;;;;;3.13;2.83;;;;;;;;;;5117224;28;20235;-61
2021/09/25 10:31:46;;;;;;;4.00;2.80;;;;;;;;;;5117393;28;20293;-61
2021/09/25 10:34:15;;;;;;;4.10;2.60;;;;;;;;;;5117636;28;20258;-62
2021/09/25 10:36:48;;;;;;;3.33;2.93;;;;;;;;;;5117286;28;20321;-61
2021/09/25 10:39:28;;;;;;;3.90;3.03;;;;;;;;;;5117489;28;20248;-61
2021/09/25 10:42:01;;;;;;;3.63;2.77;;;;;;;;;;5120633;27;20641;-62
2021/09/25 10:44:31;;;;;;;2.73;2.47;;;;;;;;;;5137979;27;20639;-61
2021/09/25 10:47:09;;;;;;;2.73;2.00;;;;;;;;;;5138330;27;20259;-61
2021/09/25 10:49:44;;;;;;;5.20;2.70;;;;;;;;;;5132509;27;20242;-61
2021/09/25 10:52:15;;;;;;;2.30;2.10;;;;;;;;;;5117898;28;20700;-61
2021/09/25 10:54:43;;;;;;;3.93;2.37;;;;;;;;;;5117749;28;20266;-61
2021/09/25 10:57:16;;;;;;;2.50;2.00;;;;;;;;;;5117794;28;20659;-61
2021/09/25 11:00:11;;;;;;;4.83;2.10;;;;;;;;;;5114885;28;20620;-61
2021/09/25 11:02:43;;;;;;;4.27;2.30;;;;;;;;;;5117380;28;20232;-61
2021/09/25 11:05:15;;;;;;;3.53;2.47;;;;;;;;;;5117991;28;20296;-61
2021/09/25 11:07:43;;;;;;;4.20;1.97;;;;;;;;;;5117683;28;20666;-61
2021/09/25 11:10:11;;;;;;;2.30;2.10;;;;;;;;;;5117414;28;20627;-61
2021/09/25 11:12:45;;;;;;;4.73;3.70;;;;;;;;;;5118159;28;20246;-61
2021/09/25 11:15:33;;;;;;;3.50;2.70;;;;;;;;;;5117707;28;20766;-61
2021/09/25 11:18:20;;;;;;;2.47;2.27;;;;;;;;;;5119506;28;20646;-61
2021/09/25 11:20:49;;;;;;;3.73;1.80;;;;;;;;;;5121876;28;20621;-61
2021/09/25 11:23:18;;;;;;;4.10;2.40;;;;;;;;;;5121883;28;20239;-61
2021/09/25 11:25:50;;;;;;;4.40;2.00;;;;;;;;;;5121439;28;20640;-61
2021/09/25 11:28:22;;;;;;;2.50;2.30;;;;;;;;;;5121676;28;20723;-61
2021/09/25 11:30:50;;;;;;;3.47;2.30;;;;;;;;;;5121502;28;20232;-61
2021/09/25 11:33:33;;;;;;;4.40;2.73;;;;;;;;;;5121717;27;20215;-61
2021/09/25 11:36:08;;;;;;;2.60;2.20;;;;;;;;;;5121200;28;20628;-62
2021/09/25 11:38:44;;;;;;;4.10;1.90;;;;;;;;;;5121675;28;20203;-61
2021/09/25 11:41:15;;;;;;;3.70;2.43;;;;;;;;;;5121369;28;20215;-61
2021/09/25 11:43:53;;;;;;;5.50;2.30;;;;;;;;;;5121447;28;20209;-61
2021/09/25 11:46:22;;;;;;;2.27;2.07;;;;;;;;;;5121254;28;20290;-61
2021/09/25 11:48:50;;;;;;;2.73;2.33;;;;;;;;;;5121241;28;20204;-61
2021/09/25 11:51:23;;;;;;;4.97;2.20;;;;;;;;;;5121255;28;20214;-62
2021/09/25 11:53:53;;;;;;;2.23;1.77;;;;;;;;;;5121162;28;20736;-61
2021/09/25 11:56:26;;;;;;;3.03;2.03;;;;;;;;;;5120681;28;20835;-62
2021/09/25 11:58:54;;;;;;;3.30;1.90;;;;;;;;;;5121190;28;20200;-62
2021/09/25 12:01:22;;;;;;;2.47;2.27;;;;;;;;;;5121265;28;20240;-62
2021/09/25 12:03:50;;;;;;;4.50;2.40;;;;;;;;;;5121199;28;20220;-62
2021/09/25 12:06:18;;;;;;;3.67;2.17;;;;;;;;;;5120997;28;20315;-62
2021/09/25 12:08:51;;;;;;;2.40;2.20;;;;;;;;;;5121377;28;20246;-62
2021/09/25 12:11:19;;;;;;;2.33;2.10;;;;;;;;;;5110898;28;20285;-62
2021/09/25 12:13:47;;;;;;;3.10;2.13;;;;;;;;;;5105670;27;20252;-62
2021/09/25 12:16:16;;;;;;;3.17;2.00;;;;;;;;;;5141354;27;20233;-62
2021/09/25 12:18:47;;;;;;;3.27;2.40;;;;;;;;;;5115930;28;20192;-62
2021/09/25 12:21:16;;;;;;;6.63;2.03;;;;;;;;;;5120675;28;20208;-62
2021/09/25 12:23:47;;;;;;;3.30;2.13;;;;;;;;;;5120722;28;20314;-62
2021/09/25 12:26:18;;;;;;;3.73;2.10;;;;;;;;;;5120374;28;20200;-63
2021/09/25 12:28:48;;;;;;;2.60;2.10;;;;;;;;;;5117991;28;20253;-62
2021/09/25 12:31:20;;;;;;;3.00;1.90;;;;;;;;;;5124873;27;20291;-62
2021/09/25 12:33:50;;;;;;;5.93;1.90;;;;;;;;;;5140854;27;20255;-62
2021/09/25 12:36:19;;;;;;;2.77;1.90;;;;;;;;;;5141077;27;20663;-62
2021/09/25 12:38:47;;;;;;;4.97;2.07;;;;;;;;;;5141333;27;20299;-62
2021/09/25 12:41:19;;;;;;;5.40;2.00;;;;;;;;;;5140680;27;20232;-62
2021/09/25 12:43:49;;;;;;;2.40;2.17;;;;;;;;;;5141074;27;20231;-62
2021/09/25 12:46:21;;;;;;;3.53;2.20;;;;;;;;;;5141187;27;20215;-62
2021/09/25 12:49:17;;;;;;;4.17;2.03;;;;;;;;;;5140990;27;20295;-62
2021/09/25 12:51:47;;;;;;;3.27;2.07;;;;;;;;;;5071765;28;20243;-62
2021/09/25 12:54:16;;;;;;;2.00;1.80;;;;;;;;;;5119885;28;20258;-62
2021/09/25 12:56:53;;;;;;;6.30;2.10;;;;;;;;;;5119641;27;20234;-62
2021/09/25 12:59:23;;;;;;;3.23;1.70;;;;;;;;;;5119838;28;20200;-62
2021/09/25 13:01:53;;;;;;;5.43;2.17;;;;;;;;;;5120137;28;20228;-62
2021/09/25 13:04:22;;;;;;;4.47;1.87;;;;;;;;;;5119907;28;20228;-62
2021/09/25 13:06:51;;;;;;;2.27;1.77;;;;;;;;;;5123907;27;20311;-62
2021/09/25 13:09:19;;;;;;;5.40;2.00;;;;;;;;;;5119538;28;20646;-62
2021/09/25 13:12:20;;;;;;;5.00;1.80;;;;;;;;;;5119215;28;20208;-62
2021/09/25 13:14:59;;;;;;;7.23;2.07;;;;;;;;;;5056347;28;20233;-61
2021/09/25 13:17:27;;;;;;;4.57;2.00;;;;;;;;;;5056232;28;20715;-61
2021/09/25 13:19:56;;;;;;;2.03;1.87;;;;;;;;;;5089889;28;20209;-62
2021/09/25 13:22:24;;;;;;;6.80;2.27;;;;;;;;;;5119471;28;20204;-61
2021/09/25 13:24:52;;;;;;;6.07;1.90;;;;;;;;;;5119140;28;20252;-62
2021/09/25 13:27:20;;;;;;;3.63;2.23;;;;;;;;;;5119013;28;20642;-61
2021/09/25 13:29:49;;;;;;;6.23;2.17;;;;;;;;;;5118960;28;20617;-61
2021/09/25 13:32:19;;;;;;;5.10;1.67;;;;;;;;;;5118783;28;20692;-62
2021/09/25 13:34:47;;;;;;;5.20;2.30;;;;;;;;;;5118946;28;20268;-63
2021/09/25 13:37:15;;;;;;;6.20;2.53;;;;;;;;;;5118793;28;20264;-61
2021/09/25 13:39:44;;;;;;;10.90;2.00;;;;;;;;;;5118157;28;20209;-62
2021/09/25 13:42:13;;;;;;;7.57;1.87;;;;;;;;;;5118780;28;20642;-62
2021/09/25 13:44:42;;;;;;;4.10;2.47;;;;;;;;;;5118939;28;20230;-62
2021/09/25 13:47:11;;;;;;;3.67;1.87;;;;;;;;;;5118609;28;20206;-63
2021/09/25 13:49:41;;;;;;;4.03;2.03;;;;;;;;;;5118570;28;20286;-62
2021/09/25 13:52:10;;;;;;;2.20;1.73;;;;;;;;;;5119183;28;20302;-62
2021/09/25 13:54:38;;;;;;;5.70;2.47;;;;;;;;;;5118186;28;20333;-62
2021/09/25 13:57:06;;;;;;;2.10;1.90;;;;;;;;;;5118727;28;20231;-63
2021/09/25 13:59:34;;;;;;;5.40;2.00;;;;;;;;;;5106039;28;20272;-62
2021/09/25 14:02:03;;;;;;;8.83;2.10;;;;;;;;;;5118369;28;20611;-60
2021/09/25 14:04:32;;;;;;;5.43;2.43;;;;;;;;;;5117423;27;20232;-62
2021/09/25 14:07:01;;;;;;;4.10;2.20;;;;;;;;;;5121693;27;20267;-62
2021/09/25 14:09:32;;;;;;;5.83;2.30;;;;;;;;;;5118236;28;20208;-62
2021/09/25 14:12:01;;;;;;;4.73;2.40;;;;;;;;;;5118248;28;20517;-60
2021/09/25 14:14:29;;;;;;;9.63;2.47;;;;;;;;;;5118171;28;20261;-60
2021/09/25 14:16:57;;;;;;;4.37;2.43;;;;;;;;;;5118144;28;20251;-61
2021/09/25 14:19:25;;;;;;;3.23;2.23;;;;;;;;;;5118552;28;20295;-62
2021/09/25 14:21:54;;;;;;;4.13;2.20;;;;;;;;;;5118491;28;20234;-62
2021/09/25 14:24:23;;;;;;;6.00;2.23;;;;;;;;;;5118016;28;20288;-61
2021/09/25 14:26:51;;;;;;;8.20;2.33;;;;;;;;;;5117935;28;20238;-60
2021/09/25 14:29:37;;;;;;;7.57;2.10;;;;;;;;;;5118002;28;20207;-60
2021/09/25 14:32:06;;;;;;;5.90;2.20;;;;;;;;;;5117841;28;20321;-60
2021/09/25 14:34:34;;;;;;;4.23;2.10;;;;;;;;;;5117890;28;20305;-60
2021/09/25 14:37:05;;;;;;;7.67;2.47;;;;;;;;;;5117920;28;20260;-61
2021/09/25 14:39:35;;;;;;;6.77;2.40;;;;;;;;;;5118080;28;20269;-61
2021/09/25 14:42:03;;;;;;;4.63;2.47;;;;;;;;;;5118018;28;20232;-61
2021/09/25 14:44:32;;;;;;;4.47;2.20;;;;;;;;;;5117966;28;20235;-61
2021/09/25 14:47:00;;;;;;;3.90;2.30;;;;;;;;;;5117903;28;20315;-60
2021/09/25 14:49:28;;;;;;;5.73;2.40;;;;;;;;;;5117727;28;20563;-60
2021/09/25 14:51:57;;;;;;;4.07;2.50;;;;;;;;;;5117006;28;20248;-60